sensor_id;sensor_type;location;lat;lon;timestamp;pressure;altitude;pressure_sealevel;temperature;humidity
77881;BME280;67077;50.298;18.996;2023-04-03T00:01:14;98368.20;;;0.88;82.81
77881;BME280;67077;50.298;18.996;2023-04-03T00:03:43;98367.91;;;0.89;83.11
77881;BME280;67077;50.298;18.996;2023-04-03T00:06:11;98373.17;;;0.92;83.25
77881;BME280;67077;50.298;18.996;2023-04-03T00:08:39;98376.30;;;0.94;82.79
77881;BME280;67077;50.298;18.996;2023-04-03T00:11:08;98373.56;;;0.93;82.60
77881;BME280;67077;50.298;18.996;2023-04-03T00:13:36;98378.45;;;0.93;82.83
77881;BME280;67077;50.298;18.996;2023-04-03T00:16:05;98375.33;;;0.93;82.72
77881;BME280;67077;50.298;18.996;2023-04-03T00:18:33;98374.69;;;0.96;83.05
77881;BME280;67077;50.298;18.996;2023-04-03T00:21:01;98372.16;;;0.93;82.52
77881;BME280;67077;50.298;18.996;2023-04-03T00:23:29;98368.84;;;0.93;82.88
77881;BME280;67077;50.298;18.996;2023-04-03T00:25:57;98366.89;;;0.94;82.96
77881;BME280;67077;50.298;18.996;2023-04-03T00:28:25;98373.55;;;0.95;82.84
77881;BME280;67077;50.298;18.996;2023-04-03T00:30:52;98369.99;;;0.93;83.08
77881;BME280;67077;50.298;18.996;2023-04-03T00:33:21;98371.61;;;0.89;83.04
77881;BME280;67077;50.298;18.996;2023-04-03T00:35:52;98373.80;;;0.89;82.77
77881;BME280;67077;50.298;18.996;2023-04-03T00:38:19;98373.20;;;0.89;83.04
77881;BME280;67077;50.298;18.996;2023-04-03T00:40:48;98377.70;;;0.91;83.26
77881;BME280;67077;50.298;18.996;2023-04-03T00:43:21;98375.02;;;0.89;83.34
77881;BME280;67077;50.298;18.996;2023-04-03T00:45:50;98375.87;;;0.86;83.10
77881;BME280;67077;50.298;18.996;2023-04-03T00:48:31;98372.12;;;0.83;83.07
77881;BME280;67077;50.298;18.996;2023-04-03T00:51:01;98374.29;;;0.84;83.46
77881;BME280;67077;50.298;18.996;2023-04-03T00:53:33;98373.50;;;0.88;83.34
77881;BME280;67077;50.298;18.996;2023-04-03T00:56:04;98383.42;;;0.90;83.32
77881;BME280;67077;50.298;18.996;2023-04-03T00:58:34;98378.59;;;0.89;83.57
77881;BME280;67077;50.298;18.996;2023-04-03T01:01:05;98382.09;;;0.86;83.38
77881;BME280;67077;50.298;18.996;2023-04-03T01:03:35;98380.11;;;0.84;83.32
77881;BME280;67077;50.298;18.996;2023-04-03T01:06:03;98382.29;;;0.85;83.46
77881;BME280;67077;50.298;18.996;2023-04-03T01:08:31;98387.15;;;0.87;82.99
77881;BME280;67077;50.298;18.996;2023-04-03T01:10:59;98385.10;;;0.84;83.20
77881;BME280;67077;50.298;18.996;2023-04-03T01:13:28;98381.91;;;0.81;83.18
77881;BME280;67077;50.298;18.996;2023-04-03T01:16:00;98380.43;;;0.79;83.19
77881;BME280;67077;50.298;18.996;2023-04-03T01:18:28;98379.45;;;0.80;83.17
77881;BME280;67077;50.298;18.996;2023-04-03T01:24:03;98388.54;;;0.76;82.90
77881;BME280;67077;50.298;18.996;2023-04-03T01:26:35;98388.02;;;0.72;83.17
77881;BME280;67077;50.298;18.996;2023-04-03T01:29:03;98398.33;;;0.72;82.92
77881;BME280;67077;50.298;18.996;2023-04-03T01:34:00;98396.98;;;0.73;82.60
77881;BME280;67077;50.298;18.996;2023-04-03T01:36:29;98395.87;;;0.72;83.00
77881;BME280;67077;50.298;18.996;2023-04-03T01:38:58;98394.09;;;0.70;83.11
77881;BME280;67077;50.298;18.996;2023-04-03T01:41:27;98399.34;;;0.73;83.15
77881;BME280;67077;50.298;18.996;2023-04-03T01:43:55;98404.44;;;0.75;82.62
77881;BME280;67077;50.298;18.996;2023-04-03T01:46:23;98402.80;;;0.70;82.52
77881;BME280;67077;50.298;18.996;2023-04-03T01:48:51;98402.91;;;0.64;82.27
77881;BME280;67077;50.298;18.996;2023-04-03T01:51:18;98410.76;;;0.59;82.18
77881;BME280;67077;50.298;18.996;2023-04-03T01:53:46;98405.30;;;0.57;82.43
77881;BME280;67077;50.298;18.996;2023-04-03T01:56:14;98410.66;;;0.54;82.02
77881;BME280;67077;50.298;18.996;2023-04-03T01:58:42;98411.95;;;0.49;82.15
77881;BME280;67077;50.298;18.996;2023-04-03T02:01:10;98407.42;;;0.42;82.26
77881;BME280;67077;50.298;18.996;2023-04-03T02:03:38;98413.98;;;0.41;82.41
77881;BME280;67077;50.298;18.996;2023-04-03T02:06:06;98414.11;;;0.43;82.45
77881;BME280;67077;50.298;18.996;2023-04-03T02:08:34;98418.12;;;0.42;82.22
77881;BME280;67077;50.298;18.996;2023-04-03T02:11:02;98420.27;;;0.38;82.06
77881;BME280;67077;50.298;18.996;2023-04-03T02:13:30;98420.10;;;0.34;82.07
77881;BME280;67077;50.298;18.996;2023-04-03T02:15:58;98422.06;;;0.34;81.79
77881;BME280;67077;50.298;18.996;2023-04-03T02:18:26;98420.92;;;0.37;82.00
77881;BME280;67077;50.298;18.996;2023-04-03T02:20:54;98419.42;;;0.36;81.80
77881;BME280;67077;50.298;18.996;2023-04-03T02:23:22;98416.46;;;0.33;82.16
77881;BME280;67077;50.298;18.996;2023-04-03T02:25:50;98417.29;;;0.32;81.97
77881;BME280;67077;50.298;18.996;2023-04-03T02:28:18;98425.89;;;0.35;82.13
77881;BME280;67077;50.298;18.996;2023-04-03T02:30:46;98424.23;;;0.39;82.42
77881;BME280;67077;50.298;18.996;2023-04-03T02:33:14;98423.98;;;0.43;82.07
77881;BME280;67077;50.298;18.996;2023-04-03T02:35:42;98428.66;;;0.45;81.98
77881;BME280;67077;50.298;18.996;2023-04-03T02:38:10;98428.44;;;0.43;82.50
77881;BME280;67077;50.298;18.996;2023-04-03T02:40:38;98425.24;;;0.40;82.15
77881;BME280;67077;50.298;18.996;2023-04-03T02:43:06;98427.17;;;0.40;82.23
77881;BME280;67077;50.298;18.996;2023-04-03T02:45:34;98422.50;;;0.41;82.41
77881;BME280;67077;50.298;18.996;2023-04-03T02:48:02;98426.75;;;0.40;82.00
77881;BME280;67077;50.298;18.996;2023-04-03T02:50:30;98426.55;;;0.37;81.91
77881;BME280;67077;50.298;18.996;2023-04-03T02:52:58;98426.35;;;0.32;81.50
77881;BME280;67077;50.298;18.996;2023-04-03T02:55:29;98427.48;;;0.31;81.64
77881;BME280;67077;50.298;18.996;2023-04-03T02:57:57;98430.41;;;0.30;81.52
77881;BME280;67077;50.298;18.996;2023-04-03T03:00:25;98435.81;;;0.27;81.02
77881;BME280;67077;50.298;18.996;2023-04-03T03:02:53;98435.23;;;0.22;80.98
77881;BME280;67077;50.298;18.996;2023-04-03T03:05:21;98434.02;;;0.19;80.87
77881;BME280;67077;50.298;18.996;2023-04-03T03:07:49;98430.67;;;0.16;80.93
77881;BME280;67077;50.298;18.996;2023-04-03T03:10:17;98432.73;;;0.17;80.36
77881;BME280;67077;50.298;18.996;2023-04-03T03:12:45;98432.39;;;0.13;79.96
77881;BME280;67077;50.298;18.996;2023-04-03T03:15:13;98435.92;;;0.06;79.70
77881;BME280;67077;50.298;18.996;2023-04-03T03:17:43;98442.03;;;-0.01;79.54
77881;BME280;67077;50.298;18.996;2023-04-03T03:20:11;98433.15;;;-0.06;79.59
77881;BME280;67077;50.298;18.996;2023-04-03T03:22:41;98435.92;;;-0.08;79.80
77881;BME280;67077;50.298;18.996;2023-04-03T03:25:09;98439.06;;;-0.09;79.91
77881;BME280;67077;50.298;18.996;2023-04-03T03:27:37;98443.97;;;-0.14;79.60
77881;BME280;67077;50.298;18.996;2023-04-03T03:30:06;98443.50;;;-0.22;79.65
77881;BME280;67077;50.298;18.996;2023-04-03T03:32:34;98448.64;;;-0.32;79.86
77881;BME280;67077;50.298;18.996;2023-04-03T03:35:02;98450.43;;;-0.38;80.07
77881;BME280;67077;50.298;18.996;2023-04-03T03:37:29;98454.48;;;-0.41;79.90
77881;BME280;67077;50.298;18.996;2023-04-03T03:39:57;98451.55;;;-0.46;79.96
77881;BME280;67077;50.298;18.996;2023-04-03T03:42:25;98455.39;;;-0.53;80.12
77881;BME280;67077;50.298;18.996;2023-04-03T03:44:53;98453.52;;;-0.62;80.13
77881;BME280;67077;50.298;18.996;2023-04-03T03:47:21;98457.27;;;-0.66;80.08
77881;BME280;67077;50.298;18.996;2023-04-03T03:49:49;98457.48;;;-0.66;80.27
77881;BME280;67077;50.298;18.996;2023-04-03T03:52:17;98458.57;;;-0.67;80.17
77881;BME280;67077;50.298;18.996;2023-04-03T03:54:45;98461.76;;;-0.71;80.18
77881;BME280;67077;50.298;18.996;2023-04-03T03:57:13;98461.80;;;-0.77;80.25
77881;BME280;67077;50.298;18.996;2023-04-03T03:59:40;98460.45;;;-0.83;80.33
77881;BME280;67077;50.298;18.996;2023-04-03T04:02:10;98466.86;;;-0.88;80.45
77881;BME280;67077;50.298;18.996;2023-04-03T04:04:38;98469.88;;;-0.88;80.51
77881;BME280;67077;50.298;18.996;2023-04-03T04:07:06;98469.17;;;-0.88;80.45
77881;BME280;67077;50.298;18.996;2023-04-03T04:09:33;98470.40;;;-0.90;80.55
77881;BME280;67077;50.298;18.996;2023-04-03T04:12:01;98471.21;;;-0.93;80.50
77881;BME280;67077;50.298;18.996;2023-04-03T04:14:29;98476.52;;;-0.97;80.68
77881;BME280;67077;50.298;18.996;2023-04-03T04:16:57;98475.58;;;-1.00;80.63
77881;BME280;67077;50.298;18.996;2023-04-03T04:19:25;98469.71;;;-1.00;80.72
77881;BME280;67077;50.298;18.996;2023-04-03T04:21:53;98473.23;;;-0.98;80.62
77881;BME280;67077;50.298;18.996;2023-04-03T04:24:21;98474.29;;;-1.00;80.69
77881;BME280;67077;50.298;18.996;2023-04-03T04:26:50;98481.83;;;-1.03;80.55
77881;BME280;67077;50.298;18.996;2023-04-03T04:29:18;98478.95;;;-1.08;80.42
77881;BME280;67077;50.298;18.996;2023-04-03T04:31:46;98479.09;;;-1.11;80.61
77881;BME280;67077;50.298;18.996;2023-04-03T04:34:14;98485.77;;;-1.09;80.56
77881;BME280;67077;50.298;18.996;2023-04-03T04:36:41;98490.11;;;-1.08;80.51
77881;BME280;67077;50.298;18.996;2023-04-03T04:39:09;98494.61;;;-1.11;80.39
77881;BME280;67077;50.298;18.996;2023-04-03T04:41:37;98491.77;;;-1.15;80.43
77881;BME280;67077;50.298;18.996;2023-04-03T04:44:05;98499.21;;;-1.19;80.54
77881;BME280;67077;50.298;18.996;2023-04-03T04:46:33;98500.61;;;-1.21;80.45
77881;BME280;67077;50.298;18.996;2023-04-03T04:49:01;98501.98;;;-1.18;80.55
77881;BME280;67077;50.298;18.996;2023-04-03T04:51:29;98503.52;;;-1.20;80.18
77881;BME280;67077;50.298;18.996;2023-04-03T04:53:57;98504.52;;;-1.23;80.28
77881;BME280;67077;50.298;18.996;2023-04-03T04:56:25;98509.77;;;-1.27;80.32
77881;BME280;67077;50.298;18.996;2023-04-03T04:58:53;98517.77;;;-1.29;80.28
77881;BME280;67077;50.298;18.996;2023-04-03T05:01:21;98524.04;;;-1.28;80.03
77881;BME280;67077;50.298;18.996;2023-04-03T05:03:49;98522.23;;;-1.28;79.90
77881;BME280;67077;50.298;18.996;2023-04-03T05:06:30;98525.80;;;-1.30;79.87
77881;BME280;67077;50.298;18.996;2023-04-03T05:09:12;98522.25;;;-1.32;79.78
77881;BME280;67077;50.298;18.996;2023-04-03T05:11:40;98530.67;;;-1.33;79.81
77881;BME280;67077;50.298;18.996;2023-04-03T05:14:08;98534.14;;;-1.31;79.76
77881;BME280;67077;50.298;18.996;2023-04-03T05:16:36;98533.64;;;-1.29;79.55
77881;BME280;67077;50.298;18.996;2023-04-03T05:19:04;98537.30;;;-1.28;79.72
77881;BME280;67077;50.298;18.996;2023-04-03T05:21:32;98542.82;;;-1.31;79.52
77881;BME280;67077;50.298;18.996;2023-04-03T05:24:01;98541.14;;;-1.34;79.40
77881;BME280;67077;50.298;18.996;2023-04-03T05:26:30;98543.90;;;-1.33;79.33
77881;BME280;67077;50.298;18.996;2023-04-03T05:28:59;98551.41;;;-1.30;79.20
77881;BME280;67077;50.298;18.996;2023-04-03T05:31:27;98547.91;;;-1.30;79.17
77881;BME280;67077;50.298;18.996;2023-04-03T05:33:57;98551.00;;;-1.33;78.97
77881;BME280;67077;50.298;18.996;2023-04-03T05:36:25;98551.44;;;-1.36;79.05
77881;BME280;67077;50.298;18.996;2023-04-03T05:38:53;98550.60;;;-1.39;79.10
77881;BME280;67077;50.298;18.996;2023-04-03T05:41:21;98557.75;;;-1.42;79.07
77881;BME280;67077;50.298;18.996;2023-04-03T05:43:49;98556.77;;;-1.41;78.88
77881;BME280;67077;50.298;18.996;2023-04-03T05:46:18;98558.51;;;-1.40;78.77
77881;BME280;67077;50.298;18.996;2023-04-03T05:48:46;98560.88;;;-1.41;78.61
77881;BME280;67077;50.298;18.996;2023-04-03T05:51:18;98559.59;;;-1.42;78.70
77881;BME280;67077;50.298;18.996;2023-04-03T05:53:46;98561.02;;;-1.41;78.78
77881;BME280;67077;50.298;18.996;2023-04-03T05:56:14;98561.00;;;-1.36;78.80
77881;BME280;67077;50.298;18.996;2023-04-03T05:58:42;98560.83;;;-1.32;78.73
77881;BME280;67077;50.298;18.996;2023-04-03T06:01:10;98563.59;;;-1.32;78.38
77881;BME280;67077;50.298;18.996;2023-04-03T06:03:39;98561.70;;;-1.34;78.17
77881;BME280;67077;50.298;18.996;2023-04-03T06:06:08;98559.19;;;-1.38;77.83
77881;BME280;67077;50.298;18.996;2023-04-03T06:08:39;98562.27;;;-1.35;78.15
77881;BME280;67077;50.298;18.996;2023-04-03T06:11:07;98562.79;;;-1.30;78.13
77881;BME280;67077;50.298;18.996;2023-04-03T06:13:36;98569.15;;;-1.27;78.10
77881;BME280;67077;50.298;18.996;2023-04-03T06:16:05;98574.94;;;-1.24;78.03
77881;BME280;67077;50.298;18.996;2023-04-03T06:18:33;98577.55;;;-1.21;77.69
77881;BME280;67077;50.298;18.996;2023-04-03T06:21:01;98577.92;;;-1.17;77.67
77881;BME280;67077;50.298;18.996;2023-04-03T06:23:30;98581.48;;;-1.09;77.85
77881;BME280;67077;50.298;18.996;2023-04-03T06:26:00;98585.13;;;-1.01;77.67
77881;BME280;67077;50.298;18.996;2023-04-03T06:28:28;98582.34;;;-0.97;77.44
77881;BME280;67077;50.298;18.996;2023-04-03T06:30:56;98582.57;;;-0.94;77.53
77881;BME280;67077;50.298;18.996;2023-04-03T06:33:24;98584.15;;;-0.92;77.24
77881;BME280;67077;50.298;18.996;2023-04-03T06:35:59;98591.12;;;-0.93;77.00
77881;BME280;67077;50.298;18.996;2023-04-03T06:38:27;98593.09;;;-0.87;76.85
77881;BME280;67077;50.298;18.996;2023-04-03T06:40:55;98592.34;;;-0.84;76.29
77881;BME280;67077;50.298;18.996;2023-04-03T06:43:23;98597.27;;;-0.86;75.98
77881;BME280;67077;50.298;18.996;2023-04-03T06:45:53;98598.25;;;-0.89;75.79
77881;BME280;67077;50.298;18.996;2023-04-03T06:48:22;98598.58;;;-0.93;75.51
77881;BME280;67077;50.298;18.996;2023-04-03T06:50:50;98604.35;;;-0.96;75.76
77881;BME280;67077;50.298;18.996;2023-04-03T06:53:18;98606.23;;;-0.96;75.67
77881;BME280;67077;50.298;18.996;2023-04-03T06:55:46;98608.90;;;-0.92;75.85
77881;BME280;67077;50.298;18.996;2023-04-03T06:58:14;98613.41;;;-0.88;75.49
77881;BME280;67077;50.298;18.996;2023-04-03T07:00:47;98614.14;;;-0.88;75.31
77881;BME280;67077;50.298;18.996;2023-04-03T07:03:15;98618.02;;;-0.91;75.22
77881;BME280;67077;50.298;18.996;2023-04-03T07:05:43;98618.81;;;-0.92;75.06
77881;BME280;67077;50.298;18.996;2023-04-03T07:08:12;98629.40;;;-0.89;74.82
77881;BME280;67077;50.298;18.996;2023-04-03T07:10:41;98633.05;;;-0.80;74.58
77881;BME280;67077;50.298;18.996;2023-04-03T07:13:14;98629.71;;;-0.67;74.48
77881;BME280;67077;50.298;18.996;2023-04-03T07:15:42;98629.55;;;-0.59;74.24
77881;BME280;67077;50.298;18.996;2023-04-03T07:18:10;98635.28;;;-0.53;73.67
77881;BME280;67077;50.298;18.996;2023-04-03T07:20:38;98637.70;;;-0.53;73.20
77881;BME280;67077;50.298;18.996;2023-04-03T07:23:06;98639.56;;;-0.56;72.93
77881;BME280;67077;50.298;18.996;2023-04-03T07:25:34;98647.00;;;-0.62;72.44
77881;BME280;67077;50.298;18.996;2023-04-03T07:28:04;98650.41;;;-0.67;72.54
77881;BME280;67077;50.298;18.996;2023-04-03T07:30:32;98648.27;;;-0.65;72.58
77881;BME280;67077;50.298;18.996;2023-04-03T07:33:00;98649.16;;;-0.65;72.16
77881;BME280;67077;50.298;18.996;2023-04-03T07:35:28;98652.92;;;-0.67;71.61
77881;BME280;67077;50.298;18.996;2023-04-03T07:37:58;98650.50;;;-0.66;72.09
77881;BME280;67077;50.298;18.996;2023-04-03T07:40:26;98655.38;;;-0.56;72.21
77881;BME280;67077;50.298;18.996;2023-04-03T07:42:55;98653.17;;;-0.46;71.54
77881;BME280;67077;50.298;18.996;2023-04-03T07:45:24;98649.67;;;-0.38;71.32
77881;BME280;67077;50.298;18.996;2023-04-03T07:48:07;98644.77;;;-0.29;71.25
77881;BME280;67077;50.298;18.996;2023-04-03T07:50:36;98643.58;;;-0.18;70.48
77881;BME280;67077;50.298;18.996;2023-04-03T07:53:05;98648.91;;;-0.10;69.49
77881;BME280;67077;50.298;18.996;2023-04-03T07:55:36;98647.34;;;-0.05;68.72
77881;BME280;67077;50.298;18.996;2023-04-03T07:58:14;98648.07;;;-0.05;68.25
77881;BME280;67077;50.298;18.996;2023-04-03T08:00:46;98649.49;;;-0.03;66.81
77881;BME280;67077;50.298;18.996;2023-04-03T08:03:14;98652.98;;;-0.03;67.30
77881;BME280;67077;50.298;18.996;2023-04-03T08:05:45;98656.06;;;-0.02;66.33
77881;BME280;67077;50.298;18.996;2023-04-03T08:08:18;98654.16;;;-0.02;65.56
77881;BME280;67077;50.298;18.996;2023-04-03T08:10:51;98653.52;;;-0.08;65.54
77881;BME280;67077;50.298;18.996;2023-04-03T08:13:20;98649.14;;;-0.13;64.64
77881;BME280;67077;50.298;18.996;2023-04-03T08:15:48;98646.75;;;-0.16;65.16
77881;BME280;67077;50.298;18.996;2023-04-03T08:18:16;98652.19;;;-0.17;65.11
77881;BME280;67077;50.298;18.996;2023-04-03T08:20:44;98655.88;;;-0.13;64.71
77881;BME280;67077;50.298;18.996;2023-04-03T08:23:14;98652.66;;;-0.11;64.16
77881;BME280;67077;50.298;18.996;2023-04-03T08:25:44;98663.85;;;-0.13;62.94
77881;BME280;67077;50.298;18.996;2023-04-03T08:28:15;98650.33;;;-0.18;62.42
77881;BME280;67077;50.298;18.996;2023-04-03T08:30:43;98655.58;;;-0.21;62.82
77881;BME280;67077;50.298;18.996;2023-04-03T08:33:11;98653.87;;;-0.22;62.21
77881;BME280;67077;50.298;18.996;2023-04-03T08:35:40;98658.80;;;-0.22;62.28
77881;BME280;67077;50.298;18.996;2023-04-03T08:38:09;98656.39;;;-0.22;61.80
77881;BME280;67077;50.298;18.996;2023-04-03T08:40:37;98649.11;;;-0.20;61.83
77881;BME280;67077;50.298;18.996;2023-04-03T08:45:53;98658.67;;;-0.07;61.09
77881;BME280;67077;50.298;18.996;2023-04-03T08:48:27;98658.38;;;0.01;60.00
77881;BME280;67077;50.298;18.996;2023-04-03T08:50:58;98661.52;;;0.09;58.81
77881;BME280;67077;50.298;18.996;2023-04-03T08:53:32;98667.07;;;0.14;58.17
77881;BME280;67077;50.298;18.996;2023-04-03T08:56:02;98665.42;;;0.19;58.71
77881;BME280;67077;50.298;18.996;2023-04-03T08:58:52;98661.58;;;0.24;57.48
77881;BME280;67077;50.298;18.996;2023-04-03T09:01:33;98658.13;;;0.27;56.94
77881;BME280;67077;50.298;18.996;2023-04-03T09:04:02;98668.51;;;0.28;54.86
77881;BME280;67077;50.298;18.996;2023-04-03T09:06:38;98671.45;;;0.26;53.64
77881;BME280;67077;50.298;18.996;2023-04-03T09:17:49;98662.80;;;0.70;53.53
77881;BME280;67077;50.298;18.996;2023-04-03T09:22:54;98660.27;;;0.95;51.01
77881;BME280;67077;50.298;18.996;2023-04-03T09:25:25;98662.52;;;1.01;50.46
77881;BME280;67077;50.298;18.996;2023-04-03T09:27:57;98652.60;;;1.03;49.58
77881;BME280;67077;50.298;18.996;2023-04-03T09:30:25;98667.87;;;1.03;46.88
77881;BME280;67077;50.298;18.996;2023-04-03T09:32:55;98670.21;;;0.99;45.94
77881;BME280;67077;50.298;18.996;2023-04-03T09:35:40;98672.92;;;0.95;45.94
77881;BME280;67077;50.298;18.996;2023-04-03T09:40:39;98674.67;;;0.99;46.57
77881;BME280;67077;50.298;18.996;2023-04-03T09:45:46;98675.73;;;1.03;49.03
77881;BME280;67077;50.298;18.996;2023-04-03T09:48:17;98681.21;;;1.05;49.79
77881;BME280;67077;50.298;18.996;2023-04-03T09:53:34;98680.86;;;1.01;49.85
77881;BME280;67077;50.298;18.996;2023-04-03T09:56:09;98682.10;;;1.04;50.39
77881;BME280;67077;50.298;18.996;2023-04-03T10:01:31;98676.55;;;1.28;51.40
77881;BME280;67077;50.298;18.996;2023-04-03T10:04:05;98675.43;;;1.45;51.97
77881;BME280;67077;50.298;18.996;2023-04-03T10:06:34;98675.35;;;1.62;51.16
77881;BME280;67077;50.298;18.996;2023-04-03T10:09:17;98680.08;;;1.79;49.70
77881;BME280;67077;50.298;18.996;2023-04-03T10:11:58;98687.74;;;1.90;48.50
77881;BME280;67077;50.298;18.996;2023-04-03T10:14:28;98683.00;;;1.89;46.01
77881;BME280;67077;50.298;18.996;2023-04-03T10:22:11;98698.06;;;1.59;46.35
77881;BME280;67077;50.298;18.996;2023-04-03T10:27:37;98692.48;;;1.63;47.31
77881;BME280;67077;50.298;18.996;2023-04-03T10:35:16;98698.11;;;1.82;45.95
77881;BME280;67077;50.298;18.996;2023-04-03T10:40:24;98686.48;;;1.87;46.33
77881;BME280;67077;50.298;18.996;2023-04-03T10:45:51;98675.90;;;1.98;47.50
77881;BME280;67077;50.298;18.996;2023-04-03T10:48:43;98677.56;;;2.06;46.98
77881;BME280;67077;50.298;18.996;2023-04-03T10:51:23;98675.86;;;2.24;48.19
77881;BME280;67077;50.298;18.996;2023-04-03T10:56:54;98666.13;;;2.64;47.29
77881;BME280;67077;50.298;18.996;2023-04-03T11:02:07;98664.34;;;2.80;46.64
77881;BME280;67077;50.298;18.996;2023-04-03T11:04:40;98663.00;;;2.84;43.96
77881;BME280;67077;50.298;18.996;2023-04-03T11:09:46;98663.03;;;2.84;43.15
77881;BME280;67077;50.298;18.996;2023-04-03T11:12:41;98669.71;;;2.86;42.59
77881;BME280;67077;50.298;18.996;2023-04-03T11:15:16;98661.67;;;2.99;42.99
77881;BME280;67077;50.298;18.996;2023-04-03T11:17:48;98660.58;;;3.11;42.86
77881;BME280;67077;50.298;18.996;2023-04-03T11:22:58;98662.20;;;3.14;41.91
77881;BME280;67077;50.298;18.996;2023-04-03T11:26:12;98673.09;;;3.11;41.15
77881;BME280;67077;50.298;18.996;2023-04-03T11:28:46;98667.54;;;2.99;39.31
77881;BME280;67077;50.298;18.996;2023-04-03T11:31:36;98657.73;;;2.99;40.97
77881;BME280;67077;50.298;18.996;2023-04-03T11:34:13;98658.23;;;3.12;41.65
77881;BME280;67077;50.298;18.996;2023-04-03T11:36:48;98652.58;;;3.16;41.60
77881;BME280;67077;50.298;18.996;2023-04-03T11:39:24;98650.83;;;3.19;41.42
77881;BME280;67077;50.298;18.996;2023-04-03T11:41:53;98652.38;;;3.25;41.02
77881;BME280;67077;50.298;18.996;2023-04-03T11:44:30;98658.27;;;3.23;40.08
77881;BME280;67077;50.298;18.996;2023-04-03T11:47:01;98648.96;;;3.13;39.22
77881;BME280;67077;50.298;18.996;2023-04-03T12:08:46;98633.33;;;3.82;38.27
77881;BME280;67077;50.298;18.996;2023-04-03T12:11:19;98627.02;;;3.82;37.71
77881;BME280;67077;50.298;18.996;2023-04-03T12:24:27;98635.05;;;4.20;38.54
77881;BME280;67077;50.298;18.996;2023-04-03T12:32:48;98628.39;;;3.97;39.33
77881;BME280;67077;50.298;18.996;2023-04-03T12:35:21;98624.38;;;3.83;38.63
77881;BME280;67077;50.298;18.996;2023-04-03T12:48:50;98621.62;;;3.93;41.91
77881;BME280;67077;50.298;18.996;2023-04-03T12:57:18;98612.02;;;3.73;43.18
77881;BME280;67077;50.298;18.996;2023-04-03T12:59:47;98627.82;;;3.72;42.01
77881;BME280;67077;50.298;18.996;2023-04-03T13:04:44;98620.69;;;3.67;42.58
77881;BME280;67077;50.298;18.996;2023-04-03T13:07:24;98610.48;;;3.75;42.03
77881;BME280;67077;50.298;18.996;2023-04-03T13:09:56;98605.41;;;3.87;41.12
77881;BME280;67077;50.298;18.996;2023-04-03T13:12:24;98607.70;;;4.00;40.44
77881;BME280;67077;50.298;18.996;2023-04-03T13:14:55;98609.83;;;4.13;39.34
77881;BME280;67077;50.298;18.996;2023-04-03T13:17:24;98610.04;;;4.20;39.13
77881;BME280;67077;50.298;18.996;2023-04-03T13:19:54;98611.63;;;4.12;36.78
77881;BME280;67077;50.298;18.996;2023-04-03T13:24:59;98610.39;;;3.94;35.53
77881;BME280;67077;50.298;18.996;2023-04-03T13:27:30;98607.89;;;4.00;36.99
77881;BME280;67077;50.298;18.996;2023-04-03T13:30:01;98604.84;;;4.15;37.72
77881;BME280;67077;50.298;18.996;2023-04-03T13:32:30;98602.71;;;4.30;38.38
77881;BME280;67077;50.298;18.996;2023-04-03T13:34:59;98609.89;;;4.46;37.94
77881;BME280;67077;50.298;18.996;2023-04-03T13:37:31;98622.52;;;4.43;37.74
77881;BME280;67077;50.298;18.996;2023-04-03T13:42:36;98616.74;;;4.47;37.93
77881;BME280;67077;50.298;18.996;2023-04-03T13:45:23;98616.27;;;4.53;37.90
77881;BME280;67077;50.298;18.996;2023-04-03T13:48:18;98617.40;;;4.54;38.57
77881;BME280;67077;50.298;18.996;2023-04-03T13:50:51;98622.05;;;4.54;38.85
77881;BME280;67077;50.298;18.996;2023-04-03T13:53:22;98623.10;;;4.44;39.31
77881;BME280;67077;50.298;18.996;2023-04-03T13:56:16;98624.89;;;4.42;40.34
77881;BME280;67077;50.298;18.996;2023-04-03T13:58:51;98622.89;;;4.38;38.89
77881;BME280;67077;50.298;18.996;2023-04-03T14:01:21;98622.74;;;4.25;38.86
77881;BME280;67077;50.298;18.996;2023-04-03T14:03:56;98623.82;;;4.17;39.10
77881;BME280;67077;50.298;18.996;2023-04-03T14:06:27;98623.59;;;4.22;38.91
77881;BME280;67077;50.298;18.996;2023-04-03T14:08:55;98614.56;;;4.29;38.90
77881;BME280;67077;50.298;18.996;2023-04-03T14:11:28;98620.29;;;4.32;38.87
77881;BME280;67077;50.298;18.996;2023-04-03T14:13:58;98622.55;;;4.26;38.61
77881;BME280;67077;50.298;18.996;2023-04-03T14:16:39;98622.53;;;4.08;37.68
77881;BME280;67077;50.298;18.996;2023-04-03T14:19:14;98621.95;;;4.02;38.23
77881;BME280;67077;50.298;18.996;2023-04-03T14:21:44;98619.25;;;4.01;38.49
77881;BME280;67077;50.298;18.996;2023-04-03T14:24:14;98620.34;;;3.99;38.62
77881;BME280;67077;50.298;18.996;2023-04-03T14:26:45;98616.41;;;3.92;39.11
77881;BME280;67077;50.298;18.996;2023-04-03T14:29:13;98621.13;;;3.86;39.58
77881;BME280;67077;50.298;18.996;2023-04-03T14:31:43;98624.30;;;3.80;40.24
77881;BME280;67077;50.298;18.996;2023-04-03T14:34:12;98634.47;;;3.70;40.56
77881;BME280;67077;50.298;18.996;2023-04-03T14:36:40;98635.95;;;3.49;40.15
77881;BME280;67077;50.298;18.996;2023-04-03T14:39:16;98631.41;;;3.31;40.58
77881;BME280;67077;50.298;18.996;2023-04-03T14:42:16;98634.45;;;3.16;39.94
77881;BME280;67077;50.298;18.996;2023-04-03T14:44:44;98634.48;;;3.07;40.29
77881;BME280;67077;50.298;18.996;2023-04-03T14:47:14;98632.57;;;3.12;40.68
77881;BME280;67077;50.298;18.996;2023-04-03T14:49:42;98635.45;;;3.15;40.59
77881;BME280;67077;50.298;18.996;2023-04-03T14:52:21;98636.59;;;3.16;41.35
77881;BME280;67077;50.298;18.996;2023-04-03T14:54:51;98636.74;;;3.25;42.71
77881;BME280;67077;50.298;18.996;2023-04-03T14:57:19;98641.71;;;3.32;42.15
77881;BME280;67077;50.298;18.996;2023-04-03T14:59:49;98644.36;;;3.35;41.70
77881;BME280;67077;50.298;18.996;2023-04-03T15:02:31;98643.80;;;3.34;41.32
77881;BME280;67077;50.298;18.996;2023-04-03T15:04:59;98641.48;;;3.34;41.70
77881;BME280;67077;50.298;18.996;2023-04-03T15:07:28;98644.89;;;3.32;40.87
77881;BME280;67077;50.298;18.996;2023-04-03T15:09:57;98642.39;;;3.25;39.69
77881;BME280;67077;50.298;18.996;2023-04-03T15:12:25;98640.38;;;3.17;38.88